createdAt,value
2017-02-04T00:00:05.329Z,96.56
2017-02-04T00:00:19.875Z,96.46
2017-02-04T00:00:34.384Z,96.46
2017-02-04T00:00:48.915Z,96.37
2017-02-04T00:01:03.452Z,96.37
2017-02-04T00:01:18.285Z,96.27
2017-02-04T00:01:32.835Z,96.17
2017-02-04T00:01:47.421Z,96.12
2017-02-04T00:02:02.002Z,96.37
2017-02-04T00:02:16.589Z,96.37
2017-02-04T00:02:31.100Z,96.56
2017-02-04T00:02:45.592Z,96.22
2017-02-04T00:03:00.108Z,96.32
2017-02-04T00:03:14.663Z,96.12
2017-02-04T00:03:29.231Z,96.32
2017-02-04T00:03:43.756Z,96.51
2017-02-04T00:03:58.280Z,96.12
2017-02-04T00:04:12.875Z,96.32
2017-02-04T00:04:27.463Z,96.32
2017-02-04T00:04:42.017Z,96.32
2017-02-04T00:04:56.649Z,96.22
2017-02-04T00:05:11.195Z,96.22
2017-02-04T00:05:25.700Z,96.12
2017-02-04T00:05:40.250Z,96.51
2017-02-04T00:05:54.774Z,96.51
2017-02-04T00:06:09.366Z,96.8
2017-02-04T00:06:23.947Z,96.51
2017-02-04T00:06:38.524Z,96.32
2017-02-04T00:06:53.022Z,96.17
2017-02-04T00:07:07.567Z,96.22
2017-02-04T00:07:22.133Z,96.12
2017-02-04T00:07:36.683Z,96.51
2017-02-04T00:07:51.273Z,96.89
2017-02-04T00:08:05.815Z,96.61
2017-02-04T00:08:20.376Z,96.61
2017-02-04T00:08:35.014Z,96.03
2017-02-04T00:08:49.605Z,96.08
2017-02-04T00:09:04.118Z,96.42
2017-02-04T00:09:18.713Z,96.51
2017-02-04T00:09:33.249Z,96.32
2017-02-04T00:09:47.857Z,96.89
2017-02-04T00:10:02.431Z,96.46
2017-02-04T00:10:16.994Z,96.56
2017-02-04T00:10:31.533Z,96.85
2017-02-04T00:10:46.145Z,96.46
2017-02-04T00:11:00.746Z,96.08
2017-02-04T00:11:15.287Z,96.85
2017-02-04T00:11:29.879Z,96.56
2017-02-04T00:11:44.383Z,96.37
2017-02-04T00:11:58.891Z,96.66
2017-02-04T00:12:13.475Z,96.46
2017-02-04T00:12:28.028Z,96.27
2017-02-04T00:12:42.523Z,96.85
2017-02-04T00:12:57.122Z,96.56
2017-02-04T00:13:11.625Z,96.75
2017-02-04T00:13:26.157Z,96.46
2017-02-04T00:13:40.702Z,96.46
2017-02-04T00:13:55.197Z,96.85
2017-02-04T00:14:09.690Z,96.56
2017-02-04T00:14:24.236Z,96.85
2017-02-04T00:14:38.806Z,96.46
2017-02-04T00:14:53.383Z,96.85
2017-02-04T00:15:07.905Z,96.56
2017-02-04T00:15:22.490Z,96.46
2017-02-04T00:15:37.061Z,96.46
2017-02-04T00:15:51.623Z,96.56
2017-02-04T00:16:06.176Z,96.94
2017-02-04T00:16:20.900Z,96.56
2017-02-04T00:16:35.406Z,96.75
2017-02-04T00:16:49.959Z,96.56
2017-02-04T00:17:04.498Z,96.66
2017-02-04T00:17:19.056Z,96.56
2017-02-04T00:17:33.667Z,96.66
2017-02-04T00:17:48.215Z,96.37
2017-02-04T00:18:02.732Z,96.75
2017-02-04T00:18:17.266Z,96.75
2017-02-04T00:18:31.833Z,96.66
2017-02-04T00:18:46.400Z,96.46
2017-02-04T00:19:00.925Z,96.94
2017-02-04T00:19:15.465Z,96.66
2017-02-04T00:19:29.981Z,96.75
2017-02-04T00:19:44.556Z,97.04
2017-02-04T00:19:59.144Z,96.37
2017-02-04T00:20:13.737Z,96.75
2017-02-04T00:20:28.359Z,96.66
2017-02-04T00:20:42.904Z,96.27
2017-02-04T00:20:57.415Z,96.66
2017-02-04T00:21:11.970Z,96.56
2017-02-04T00:21:26.536Z,96.46
2017-02-04T00:21:41.122Z,96.56
2017-02-04T00:21:55.700Z,96.37
2017-02-04T00:22:10.265Z,96.46
2017-02-04T00:22:24.816Z,96.37
2017-02-04T00:22:39.358Z,96.46
2017-02-04T00:22:53.877Z,96.46
2017-02-04T00:23:08.468Z,96.12
2017-02-04T00:23:23.025Z,96.42
2017-02-04T00:23:37.558Z,96.42
2017-02-04T00:23:52.100Z,96.32
2017-02-04T00:24:06.688Z,96.51
2017-02-04T00:24:21.215Z,96.42
2017-02-04T00:24:35.708Z,96.22
2017-02-04T00:24:50.272Z,96.42
2017-02-04T00:25:04.834Z,96.32
2017-02-04T00:25:19.409Z,96.22
2017-02-04T00:25:33.987Z,96.32
2017-02-04T00:25:48.559Z,96.42
2017-02-04T00:26:03.137Z,96.03
2017-02-04T00:26:17.734Z,96.42
2017-02-04T00:26:32.298Z,96.03
2017-02-04T00:26:46.849Z,96.12
2017-02-04T00:27:01.423Z,96.22
2017-02-04T00:27:15.959Z,96.32
2017-02-04T00:27:30.519Z,96.42
2017-02-04T00:27:45.090Z,96.12
2017-02-04T00:27:59.645Z,95.94
2017-02-04T00:28:14.229Z,96.8
2017-02-04T00:28:28.749Z,95.74
2017-02-04T00:28:43.310Z,96.03
2017-02-04T00:28:57.832Z,96.12
2017-02-04T00:29:12.345Z,96.12
2017-02-04T00:29:26.860Z,95.94
2017-02-04T00:29:41.435Z,96.12
2017-02-04T00:29:55.943Z,96.12
2017-02-04T00:30:10.501Z,96.12
2017-02-04T00:30:25.058Z,95.84
2017-02-04T00:30:39.711Z,96.12
2017-02-04T00:30:54.342Z,95.64
2017-02-04T00:31:08.898Z,95.84
2017-02-04T00:31:23.498Z,95.94
2017-02-04T00:31:38.333Z,96.03
2017-02-04T00:31:52.917Z,96.12
2017-02-04T00:32:07.485Z,95.74
2017-02-04T00:32:22.011Z,95.94
2017-02-04T00:32:36.531Z,96.22
2017-02-04T00:32:51.051Z,95.94
2017-02-04T00:33:05.670Z,95.64
2017-02-04T00:33:20.209Z,95.94
2017-02-04T00:33:34.807Z,96.12
2017-02-04T00:33:49.350Z,95.94
2017-02-04T00:34:03.867Z,96.22
2017-02-04T00:34:18.491Z,95.84
2017-02-04T00:34:33.114Z,95.74
2017-02-04T00:34:47.644Z,95.94
2017-02-04T00:35:02.174Z,95.84
2017-02-04T00:35:16.689Z,96.03
2017-02-04T00:35:31.245Z,95.94
2017-02-04T00:35:45.789Z,95.84
2017-02-04T00:36:00.369Z,96.03
2017-02-04T00:36:14.922Z,96.03
2017-02-04T00:36:29.445Z,95.94
2017-02-04T00:36:44.007Z,95.84
2017-02-04T00:36:58.584Z,95.94
2017-02-04T00:37:13.120Z,95.94
2017-02-04T00:37:27.698Z,95.84
2017-02-04T00:37:42.291Z,95.84
2017-02-04T00:37:56.782Z,95.36
2017-02-04T00:38:11.387Z,95.94
2017-02-04T00:38:25.943Z,95.94
2017-02-04T00:38:40.456Z,95.94
2017-02-04T00:38:55.039Z,96.03
2017-02-04T00:39:09.613Z,95.74
2017-02-04T00:39:24.190Z,96.03
2017-02-04T00:39:38.764Z,95.94
2017-02-04T00:39:53.312Z,95.84
2017-02-04T00:40:07.893Z,95.94
2017-02-04T00:40:22.431Z,95.94
2017-02-04T00:40:36.978Z,95.84
2017-02-04T00:40:51.577Z,95.94
2017-02-04T00:41:06.144Z,95.84
2017-02-04T00:41:20.664Z,95.84
2017-02-04T00:41:35.236Z,95.84
2017-02-04T00:41:49.830Z,95.84
2017-02-04T00:42:04.326Z,95.84
2017-02-04T00:42:18.913Z,95.84
2017-02-04T00:42:33.459Z,95.94
2017-02-04T00:42:48.056Z,95.84
2017-02-04T00:43:02.658Z,95.94
2017-02-04T00:43:17.223Z,95.94
2017-02-04T00:43:31.815Z,95.94
2017-02-04T00:43:46.395Z,96.03
2017-02-04T00:44:00.976Z,95.45
2017-02-04T00:44:15.567Z,96.12
2017-02-04T00:44:30.186Z,95.94
2017-02-04T00:44:44.765Z,95.94
2017-02-04T00:44:59.352Z,95.84
2017-02-04T00:45:13.888Z,95.84
2017-02-04T00:45:28.469Z,95.94
2017-02-04T00:45:42.989Z,95.94
2017-02-04T00:45:57.548Z,95.84
2017-02-04T00:46:12.095Z,95.84
2017-02-04T00:46:26.575Z,96.03
2017-02-04T00:46:41.321Z,95.84
2017-02-04T00:46:55.865Z,96.03
2017-02-04T00:47:10.352Z,95.74
2017-02-04T00:47:24.881Z,95.94
2017-02-04T00:47:39.399Z,95.94
2017-02-04T00:47:53.937Z,95.94
2017-02-04T00:48:08.513Z,96.03
2017-02-04T00:48:23.029Z,95.74
2017-02-04T00:48:37.558Z,96.03
2017-02-04T00:48:52.101Z,95.74
2017-02-04T00:49:06.703Z,95.94
2017-02-04T00:49:21.258Z,95.84
2017-02-04T00:49:35.773Z,96.03
2017-02-04T00:49:50.307Z,96.03
2017-02-04T00:50:04.838Z,95.36
2017-02-04T00:50:19.416Z,95.94
2017-02-04T00:50:33.973Z,95.94
2017-02-04T00:50:48.543Z,95.84
2017-02-04T00:51:03.040Z,95.84
2017-02-04T00:51:17.571Z,95.84
2017-02-04T00:51:32.100Z,95.89
2017-02-04T00:51:46.685Z,95.26
2017-02-04T00:52:01.265Z,95.36
2017-02-04T00:52:15.808Z,95.36
2017-02-04T00:52:30.384Z,95.36
2017-02-04T00:52:44.884Z,95.36
2017-02-04T00:52:59.448Z,94.68
2017-02-04T00:53:13.961Z,94.78
2017-02-04T00:53:28.533Z,94.87
2017-02-04T00:53:43.142Z,95.07
2017-02-04T00:53:57.642Z,95.16
2017-02-04T00:54:12.138Z,95.26
2017-02-04T00:54:26.777Z,94.87
2017-02-04T00:54:41.310Z,94.59
2017-02-04T00:54:55.887Z,94.78
2017-02-04T00:55:10.442Z,94.39
2017-02-04T00:55:24.991Z,94.78
2017-02-04T00:55:39.503Z,94.59
2017-02-04T00:55:54.335Z,94.59
2017-02-04T00:56:08.858Z,94.78
2017-02-04T00:56:23.463Z,94.87
2017-02-04T00:56:38.024Z,94.78
2017-02-04T00:56:52.588Z,94.87
2017-02-04T00:57:07.093Z,94.49
2017-02-04T00:57:21.632Z,94.78
2017-02-04T00:57:36.133Z,94.78
2017-02-04T00:57:50.683Z,94.78
2017-02-04T00:58:05.228Z,94.78
2017-02-04T00:58:19.774Z,94.87
2017-02-04T00:58:34.338Z,94.49
2017-02-04T00:58:48.842Z,94.59
2017-02-04T00:59:03.351Z,94.78
2017-02-04T00:59:17.921Z,95.07
2017-02-04T00:59:32.452Z,94.68
2017-02-04T00:59:47.047Z,94.49
2017-02-04T01:00:01.589Z,95.26
2017-02-04T01:00:16.224Z,94.68
2017-02-04T01:00:30.787Z,94.59
2017-02-04T01:00:45.324Z,94.59
2017-02-04T01:00:59.870Z,94.59
2017-02-04T01:01:14.491Z,94.59
2017-02-04T01:01:29.025Z,94.78
2017-02-04T01:01:43.812Z,94.78
2017-02-04T01:01:58.317Z,94.87
2017-02-04T01:02:12.922Z,94.87
2017-02-04T01:02:27.504Z,94.78
2017-02-04T01:02:42.067Z,94.59
2017-02-04T01:02:56.595Z,95.07
2017-02-04T01:03:11.116Z,94.78
2017-02-04T01:03:25.710Z,94.78
2017-02-04T01:03:40.238Z,94.78
2017-02-04T01:03:54.784Z,95.07
2017-02-04T01:04:09.414Z,94.78
2017-02-04T01:04:23.986Z,94.87
2017-02-04T01:04:38.508Z,94.59
2017-02-04T01:04:53.054Z,95.07
2017-02-04T01:05:07.644Z,94.68
2017-02-04T01:05:22.231Z,94.68
2017-02-04T01:05:36.763Z,94.87
2017-02-04T01:05:51.323Z,94.78
2017-02-04T01:06:05.906Z,94.78
2017-02-04T01:06:20.504Z,94.78
2017-02-04T01:06:35.039Z,94.87
2017-02-04T01:06:49.625Z,94.87
2017-02-04T01:07:04.223Z,94.87
2017-02-04T01:07:18.759Z,95.07
2017-02-04T01:07:33.290Z,94.87
2017-02-04T01:07:47.836Z,94.68
2017-02-04T01:08:02.374Z,94.87
2017-02-04T01:08:16.937Z,94.87
2017-02-04T01:08:31.464Z,94.68
2017-02-04T01:08:45.981Z,94.78
2017-02-04T01:09:00.495Z,94.87
2017-02-04T01:09:15.027Z,94.87
2017-02-04T01:09:29.594Z,94.78
2017-02-04T01:09:44.142Z,94.49
2017-02-04T01:09:58.695Z,94.87
2017-02-04T01:10:13.268Z,94.97
2017-02-04T01:10:27.883Z,94.78
2017-02-04T01:10:42.443Z,94.87
2017-02-04T01:10:57.038Z,94.87
2017-02-04T01:11:11.586Z,94.87
2017-02-04T01:11:26.094Z,94.87
2017-02-04T01:11:40.621Z,94.97
2017-02-04T01:11:55.151Z,94.97
2017-02-04T01:12:09.733Z,94.97
2017-02-04T01:12:24.275Z,95.26
2017-02-04T01:12:38.843Z,95.26
2017-02-04T01:12:53.377Z,95.16
2017-02-04T01:13:07.947Z,95.26
2017-02-04T01:13:22.534Z,95.45
2017-02-04T01:13:37.048Z,94.97
2017-02-04T01:13:51.619Z,95.36
2017-02-04T01:14:06.184Z,95.16
2017-02-04T01:14:20.742Z,94.97
2017-02-04T01:14:35.286Z,95.26
2017-02-04T01:14:49.817Z,94.87
2017-02-04T01:15:04.348Z,94.87
2017-02-04T01:15:18.914Z,94.68
2017-02-04T01:15:33.474Z,95.26
2017-02-04T01:15:47.964Z,95.26
2017-02-04T01:16:02.541Z,95.26
2017-02-04T01:16:17.050Z,95.16
2017-02-04T01:16:31.578Z,95.26
2017-02-04T01:16:46.666Z,94.87
2017-02-04T01:17:01.261Z,95.21
2017-02-04T01:17:15.820Z,95.45
2017-02-04T01:17:30.388Z,95.16
2017-02-04T01:17:45.015Z,95.12
2017-02-04T01:17:59.566Z,95.02
2017-02-04T01:18:14.065Z,95.12
2017-02-04T01:18:28.653Z,95.21
2017-02-04T01:18:43.220Z,95.31
2017-02-04T01:18:57.815Z,95.12
2017-02-04T01:19:12.392Z,95.36
2017-02-04T01:19:27.019Z,95.12
2017-02-04T01:19:41.577Z,95.12
2017-02-04T01:19:56.168Z,95.4
2017-02-04T01:20:10.774Z,95.31
2017-02-04T01:20:25.308Z,94.82
2017-02-04T01:20:39.885Z,94.54
2017-02-04T01:20:54.449Z,94.54
2017-02-04T01:21:09.039Z,94.78
2017-02-04T01:21:23.607Z,94.59
2017-02-04T01:21:38.127Z,94.87
2017-02-04T01:21:52.704Z,94.68
2017-02-04T01:22:07.229Z,94.68
2017-02-04T01:22:21.825Z,94.78
2017-02-04T01:22:36.365Z,94.87
2017-02-04T01:22:50.903Z,94.68
2017-02-04T01:23:05.430Z,94.87
2017-02-04T01:23:19.963Z,94.2
2017-02-04T01:23:34.522Z,94.39
2017-02-04T01:23:49.120Z,94.29
2017-02-04T01:24:03.646Z,94.39
2017-02-04T01:24:18.180Z,94.39
2017-02-04T01:24:32.666Z,94.49
2017-02-04T01:24:47.222Z,94.68
2017-02-04T01:25:01.751Z,95.07
2017-02-04T01:25:16.254Z,94.59
2017-02-04T01:25:30.809Z,94.49
2017-02-04T01:25:45.407Z,94.68
2017-02-04T01:25:59.980Z,94.87
2017-02-04T01:26:14.525Z,94.87
2017-02-04T01:26:29.073Z,94.68
2017-02-04T01:26:43.661Z,94.87
2017-02-04T01:26:58.215Z,94.87
2017-02-04T01:27:12.781Z,94.39
2017-02-04T01:27:27.362Z,94.59
2017-02-04T01:27:41.948Z,94.39
2017-02-04T01:27:56.549Z,94.49
2017-02-04T01:28:11.098Z,94.78
2017-02-04T01:28:25.652Z,94.97
2017-02-04T01:28:40.173Z,94.87
2017-02-04T01:28:54.687Z,95.16
2017-02-04T01:29:09.224Z,94.49
2017-02-04T01:29:23.758Z,94.87
2017-02-04T01:29:38.249Z,94.87
2017-02-04T01:29:52.748Z,94.68
2017-02-04T01:30:07.236Z,94.78
2017-02-04T01:30:21.805Z,94.82
2017-02-04T01:30:36.334Z,94.64
2017-02-04T01:30:50.869Z,94.68
2017-02-04T01:31:05.364Z,94.78
2017-02-04T01:31:19.890Z,94.87
2017-02-04T01:31:34.469Z,94.82
2017-02-04T01:31:48.963Z,94.87
2017-02-04T01:32:03.811Z,94.82
2017-02-04T01:32:18.324Z,94.87
2017-02-04T01:32:32.846Z,94.73
2017-02-04T01:32:47.424Z,94.82
2017-02-04T01:33:01.902Z,94.64
2017-02-04T01:33:16.458Z,94.82
2017-02-04T01:33:31.036Z,94.92
2017-02-04T01:33:45.546Z,94.92
2017-02-04T01:34:00.101Z,94.82
2017-02-04T01:34:14.701Z,94.15
2017-02-04T01:34:29.225Z,94.54
2017-02-04T01:34:43.854Z,94.54
2017-02-04T01:34:58.430Z,94.44
2017-02-04T01:35:12.981Z,94.82
2017-02-04T01:35:27.468Z,94.25
2017-02-04T01:35:41.976Z,94.54
2017-02-04T01:35:56.482Z,94.44
2017-02-04T01:36:11.012Z,94.54
2017-02-04T01:36:25.521Z,94.64
2017-02-04T01:36:39.995Z,94.44
2017-02-04T01:36:54.514Z,94.15
2017-02-04T01:37:09.044Z,94.06
2017-02-04T01:37:23.573Z,94.25
2017-02-04T01:37:38.130Z,94.15
2017-02-04T01:37:52.673Z,93.96
2017-02-04T01:38:07.218Z,94.25
2017-02-04T01:38:21.720Z,94.15
2017-02-04T01:38:36.219Z,93.57
2017-02-04T01:38:50.764Z,93.48
2017-02-04T01:39:05.276Z,93.77
2017-02-04T01:39:19.792Z,93.67
2017-02-04T01:39:34.261Z,93.19
2017-02-04T01:39:48.819Z,93.09
2017-02-04T01:40:03.352Z,93.19
2017-02-04T01:40:17.863Z,92.42
2017-02-04T01:40:32.353Z,92.52
2017-02-04T01:40:46.944Z,92.61
2017-02-04T01:41:01.477Z,92.71
2017-02-04T01:41:16.076Z,92.8
2017-02-04T01:41:30.655Z,92.52
2017-02-04T01:41:45.146Z,92.8
2017-02-04T01:41:59.719Z,92.22
2017-02-04T01:42:14.248Z,92.42
2017-02-04T01:42:28.786Z,92.22
2017-02-04T01:42:43.301Z,92.22
2017-02-04T01:42:57.855Z,91.84
2017-02-04T01:43:12.485Z,92.61
2017-02-04T01:43:27.027Z,92.32
2017-02-04T01:43:41.540Z,92.47
2017-02-04T01:43:56.036Z,91.79
2017-02-04T01:44:10.579Z,91.84
2017-02-04T01:44:25.124Z,91.41
2017-02-04T01:44:39.641Z,91.5
2017-02-04T01:44:54.162Z,91.5
2017-02-04T01:45:08.675Z,91.6
2017-02-04T01:45:23.208Z,91.41
2017-02-04T01:45:37.678Z,91.6
2017-02-04T01:45:52.210Z,91.6
2017-02-04T01:46:06.734Z,91.5
2017-02-04T01:46:21.260Z,91.79
2017-02-04T01:46:35.816Z,91.31
2017-02-04T01:46:50.344Z,91.69
2017-02-04T01:47:05.026Z,91.41
2017-02-04T01:47:19.542Z,91.5
2017-02-04T01:47:34.084Z,92.08
2017-02-04T01:47:48.612Z,92.27
2017-02-04T01:48:03.145Z,92.56
2017-02-04T01:48:17.706Z,92.66
2017-02-04T01:48:32.244Z,92.56
2017-02-04T01:48:46.731Z,92.37
2017-02-04T01:49:01.243Z,92.18
2017-02-04T01:49:15.754Z,92.56
2017-02-04T01:49:30.271Z,92.56
2017-02-04T01:49:44.792Z,92.56
2017-02-04T01:49:59.370Z,92.37
2017-02-04T01:50:13.903Z,92.47
2017-02-04T01:50:28.457Z,92.47
2017-02-04T01:50:42.943Z,92.56
2017-02-04T01:50:57.474Z,92.56
2017-02-04T01:51:11.991Z,92.85
2017-02-04T01:51:26.543Z,92.66
2017-02-04T01:51:41.098Z,92.85
2017-02-04T01:51:55.577Z,92.56
2017-02-04T01:52:10.044Z,92.76
2017-02-04T01:52:24.538Z,92.56
2017-02-04T01:52:39.093Z,92.76
2017-02-04T01:52:53.595Z,92.61
2017-02-04T01:53:08.170Z,92.94
2017-02-04T01:53:22.703Z,92.66
2017-02-04T01:53:37.241Z,92.52
2017-02-04T01:53:51.810Z,92.52
2017-02-04T01:54:06.374Z,92.61
2017-02-04T01:54:20.900Z,92.32
2017-02-04T01:54:35.421Z,92.8
2017-02-04T01:54:49.984Z,92.8
2017-02-04T01:55:04.511Z,92.32
2017-02-04T01:55:19.014Z,92.8
2017-02-04T01:55:33.538Z,92.71
2017-02-04T01:55:48.039Z,92.61
2017-02-04T01:56:02.559Z,92.52
2017-02-04T01:56:17.029Z,92.61
2017-02-04T01:56:31.545Z,92.52
2017-02-04T01:56:46.078Z,92.52
2017-02-04T01:57:00.605Z,92.22
2017-02-04T01:57:15.135Z,92.22
2017-02-04T01:57:29.619Z,92.32
2017-02-04T01:57:44.177Z,92.22
2017-02-04T01:57:58.742Z,92.32
2017-02-04T01:58:13.243Z,92.22
2017-02-04T01:58:27.792Z,92.32
2017-02-04T01:58:42.339Z,92.22
2017-02-04T01:58:56.871Z,92.13
2017-02-04T01:59:11.381Z,92.03
2017-02-04T01:59:25.883Z,92.03
2017-02-04T01:59:40.467Z,92.03
2017-02-04T01:59:55.033Z,92.13
2017-02-04T02:00:09.577Z,92.32
2017-02-04T02:00:24.153Z,92.13
2017-02-04T02:00:38.714Z,92.22
2017-02-04T02:00:53.237Z,92.22
2017-02-04T02:01:07.757Z,92.32
2017-02-04T02:01:22.263Z,92.61
2017-02-04T02:01:36.792Z,92.03
2017-02-04T02:01:51.311Z,92.52
2017-02-04T02:02:06.405Z,92.42
2017-02-04T02:02:20.988Z,92.32
2017-02-04T02:02:35.482Z,92.13
2017-02-04T02:02:50.015Z,91.84
2017-02-04T02:03:04.525Z,92.03
2017-02-04T02:03:19.099Z,91.46
2017-02-04T02:03:33.692Z,91.46
2017-02-04T02:03:48.199Z,91.55
2017-02-04T02:04:02.712Z,91.55
2017-02-04T02:04:17.237Z,91.55
2017-02-04T02:04:31.749Z,91.75
2017-02-04T02:04:46.266Z,91.55
2017-02-04T02:05:00.801Z,91.65
2017-02-04T02:05:15.416Z,91.55
2017-02-04T02:05:29.985Z,91.75
2017-02-04T02:05:44.491Z,91.46
2017-02-04T02:05:58.963Z,91.65
2017-02-04T02:06:13.517Z,91.46
2017-02-04T02:06:28.057Z,91.27
2017-02-04T02:06:42.575Z,91.36
2017-02-04T02:06:57.056Z,91.36
2017-02-04T02:07:11.649Z,91.65
2017-02-04T02:07:26.240Z,91.17
2017-02-04T02:07:40.754Z,91.46
2017-02-04T02:07:55.238Z,91.94
2017-02-04T02:08:09.804Z,91.55
2017-02-04T02:08:24.347Z,91.27
2017-02-04T02:08:38.898Z,91.55
2017-02-04T02:08:53.459Z,91.46
2017-02-04T02:09:08.073Z,91.46
2017-02-04T02:09:22.526Z,91.36
2017-02-04T02:09:37.098Z,91.55
2017-02-04T02:09:51.694Z,91.36
2017-02-04T02:10:06.279Z,91.27
2017-02-04T02:10:20.799Z,91.36
2017-02-04T02:10:35.258Z,91.46
2017-02-04T02:10:49.725Z,91.27
2017-02-04T02:11:04.245Z,91.27
2017-02-04T02:11:18.738Z,91.46
2017-02-04T02:11:33.211Z,91.46
2017-02-04T02:11:47.693Z,91.07
2017-02-04T02:12:02.206Z,91.46
2017-02-04T02:12:16.783Z,91.27
2017-02-04T02:12:31.326Z,91.84
2017-02-04T02:12:45.812Z,91.36
2017-02-04T02:13:00.332Z,91.27
2017-02-04T02:13:14.884Z,91.46
2017-02-04T02:13:29.421Z,91.27
2017-02-04T02:13:43.941Z,91.46
2017-02-04T02:13:58.520Z,91.36
2017-02-04T02:14:13.013Z,91.27
2017-02-04T02:14:27.530Z,91.46
2017-02-04T02:14:42.088Z,91.46
2017-02-04T02:14:56.653Z,91.36
2017-02-04T02:15:11.205Z,91.36
2017-02-04T02:15:25.759Z,91.27
2017-02-04T02:15:40.306Z,91.36
2017-02-04T02:15:54.801Z,91.75
2017-02-04T02:16:09.348Z,91.36
2017-02-04T02:16:23.941Z,91.17
2017-02-04T02:16:38.504Z,91.27
2017-02-04T02:16:53.062Z,91.27
2017-02-04T02:17:07.940Z,91.27
2017-02-04T02:17:22.489Z,91.46
2017-02-04T02:17:37.069Z,91.27
2017-02-04T02:17:51.575Z,91.46
2017-02-04T02:18:06.108Z,91.17
2017-02-04T02:18:20.621Z,91.46
2017-02-04T02:18:35.199Z,91.27
2017-02-04T02:18:49.752Z,91.36
2017-02-04T02:19:04.372Z,91.36
2017-02-04T02:19:18.909Z,91.46
2017-02-04T02:19:33.466Z,91.46
2017-02-04T02:19:47.993Z,91.46
2017-02-04T02:20:02.559Z,91.46
2017-02-04T02:20:17.079Z,91.46
2017-02-04T02:20:31.628Z,91.55
2017-02-04T02:20:46.091Z,91.46
2017-02-04T02:21:00.618Z,91.55
2017-02-04T02:21:15.122Z,91.46
2017-02-04T02:21:29.666Z,91.46
2017-02-04T02:21:44.223Z,91.55
2017-02-04T02:21:58.736Z,91.36
2017-02-04T02:22:13.229Z,91.36
2017-02-04T02:22:27.727Z,91.46
2017-02-04T02:22:42.257Z,91.17
2017-02-04T02:22:56.778Z,91.27
2017-02-04T02:23:11.363Z,91.65
2017-02-04T02:23:25.882Z,91.55
2017-02-04T02:23:40.432Z,91.46
2017-02-04T02:23:54.947Z,91.55
2017-02-04T02:24:09.558Z,91.65
2017-02-04T02:24:24.063Z,91.46
2017-02-04T02:24:38.570Z,91.55
2017-02-04T02:24:53.157Z,91.17
2017-02-04T02:25:07.655Z,91.65
2017-02-04T02:25:22.211Z,91.27
2017-02-04T02:25:36.700Z,91.36
2017-02-04T02:25:51.292Z,91.17
2017-02-04T02:26:05.875Z,91.46
2017-02-04T02:26:20.457Z,91.55
2017-02-04T02:26:35.023Z,91.46
2017-02-04T02:26:49.580Z,91.55
2017-02-04T02:27:04.098Z,91.65
2017-02-04T02:27:18.587Z,91.55
2017-02-04T02:27:33.089Z,91.46
2017-02-04T02:27:47.610Z,91.46
2017-02-04T02:28:02.150Z,91.46
2017-02-04T02:28:16.684Z,90.78
2017-02-04T02:28:31.204Z,91.17
2017-02-04T02:28:45.724Z,91.55
2017-02-04T02:29:00.256Z,91.46
2017-02-04T02:29:14.768Z,91.75
2017-02-04T02:29:29.266Z,91.94
2017-02-04T02:29:43.789Z,91.46
2017-02-04T02:29:58.288Z,91.55
2017-02-04T02:30:12.842Z,91.55
2017-02-04T02:30:27.434Z,91.36
2017-02-04T02:30:41.910Z,91.55
2017-02-04T02:30:56.413Z,91.46
2017-02-04T02:31:10.925Z,91.65
2017-02-04T02:31:25.427Z,91.55
2017-02-04T02:31:39.949Z,91.46
2017-02-04T02:31:54.468Z,91.36
2017-02-04T02:32:08.968Z,91.65
2017-02-04T02:32:23.688Z,91.46
2017-02-04T02:32:38.215Z,91.27
2017-02-04T02:32:52.699Z,91.46
2017-02-04T02:33:07.281Z,91.46
2017-02-04T02:33:21.800Z,91.36
2017-02-04T02:33:36.306Z,91.55
2017-02-04T02:33:50.895Z,91.46
2017-02-04T02:34:05.427Z,91.55
2017-02-04T02:34:19.939Z,91.46
2017-02-04T02:34:34.431Z,91.17
2017-02-04T02:34:48.974Z,91.55
2017-02-04T02:35:03.500Z,91.46
2017-02-04T02:35:18.011Z,91.55
2017-02-04T02:35:32.618Z,91.55
2017-02-04T02:35:47.168Z,91.46
2017-02-04T02:36:01.664Z,91.65
2017-02-04T02:36:16.206Z,91.55
2017-02-04T02:36:30.783Z,91.46
2017-02-04T02:36:45.299Z,91.46
2017-02-04T02:36:59.850Z,91.65
2017-02-04T02:37:14.395Z,91.46
2017-02-04T02:37:28.924Z,91.65
2017-02-04T02:37:43.452Z,91.46
2017-02-04T02:37:57.992Z,91.65
2017-02-04T02:38:12.513Z,91.55
2017-02-04T02:38:27.013Z,91.55
2017-02-04T02:38:41.570Z,91.17
2017-02-04T02:38:56.087Z,91.36
2017-02-04T02:39:10.661Z,91.46
2017-02-04T02:39:25.210Z,91.46
2017-02-04T02:39:39.762Z,91.55
2017-02-04T02:39:54.302Z,91.55
2017-02-04T02:40:08.832Z,91.46
2017-02-04T02:40:23.358Z,91.17
2017-02-04T02:40:37.929Z,91.46
2017-02-04T02:40:52.436Z,91.55
2017-02-04T02:41:07.050Z,91.55
2017-02-04T02:41:21.546Z,91.55
2017-02-04T02:41:36.040Z,91.55
2017-02-04T02:41:50.561Z,91.51
2017-02-04T02:42:05.139Z,91.65
2017-02-04T02:42:19.715Z,91.46
2017-02-04T02:42:34.230Z,91.65
2017-02-04T02:42:48.789Z,91.55
2017-02-04T02:43:03.263Z,91.27
2017-02-04T02:43:17.760Z,91.46
2017-02-04T02:43:32.324Z,91.46
2017-02-04T02:43:46.854Z,91.13
2017-02-04T02:44:01.387Z,90.78
2017-02-04T02:44:15.914Z,91.55
2017-02-04T02:44:30.408Z,91.55
2017-02-04T02:44:45.007Z,91.46
2017-02-04T02:44:59.538Z,90.78
2017-02-04T02:45:14.063Z,91.46
2017-02-04T02:45:28.643Z,91.27
2017-02-04T02:45:43.150Z,91.17
2017-02-04T02:45:57.658Z,91.41
2017-02-04T02:46:12.220Z,91.46
2017-02-04T02:46:26.775Z,91.36
2017-02-04T02:46:41.331Z,91.27
2017-02-04T02:46:55.869Z,90.78
2017-02-04T02:47:10.391Z,90.73
2017-02-04T02:47:25.435Z,91.55
2017-02-04T02:47:39.959Z,91.07
2017-02-04T02:47:54.440Z,90.78
2017-02-04T02:48:08.970Z,90.97
2017-02-04T02:48:23.510Z,91.65
2017-02-04T02:48:38.023Z,90.83
2017-02-04T02:48:52.627Z,90.97
2017-02-04T02:49:07.158Z,90.83
2017-02-04T02:49:21.690Z,90.88
2017-02-04T02:49:36.222Z,90.78
2017-02-04T02:49:50.757Z,90.69
2017-02-04T02:50:05.279Z,90.83
2017-02-04T02:50:19.802Z,90.97
2017-02-04T02:50:34.308Z,90.78
2017-02-04T02:50:48.854Z,90.88
2017-02-04T02:51:03.342Z,90.88
2017-02-04T02:51:17.904Z,90.97
2017-02-04T02:51:32.446Z,90.35
2017-02-04T02:51:46.933Z,90.35
2017-02-04T02:52:01.411Z,90.3
2017-02-04T02:52:15.905Z,90.16
2017-02-04T02:52:30.436Z,90.16
2017-02-04T02:52:44.939Z,90.4
2017-02-04T02:52:59.515Z,90.97
2017-02-04T02:53:14.112Z,90.3
2017-02-04T02:53:28.699Z,90.59
2017-02-04T02:53:43.193Z,90.55
2017-02-04T02:53:57.699Z,90.3
2017-02-04T02:54:12.190Z,90.06
2017-02-04T02:54:26.716Z,90.06
2017-02-04T02:54:41.271Z,89.72
2017-02-04T02:54:55.808Z,89.92
2017-02-04T02:55:10.362Z,89.87
2017-02-04T02:55:24.875Z,89.63
2017-02-04T02:55:39.392Z,89.92
2017-02-04T02:55:53.955Z,90.01
2017-02-04T02:56:08.424Z,90.01
2017-02-04T02:56:22.919Z,89.92
2017-02-04T02:56:37.463Z,90.01
2017-02-04T02:56:51.930Z,89.53
2017-02-04T02:57:06.446Z,89.43
2017-02-04T02:57:20.935Z,89.53
2017-02-04T02:57:35.416Z,89.34
2017-02-04T02:57:49.966Z,89.24
2017-02-04T02:58:04.498Z,89.43
2017-02-04T02:58:18.981Z,89.34
2017-02-04T02:58:33.467Z,89.53
2017-02-04T02:58:48.075Z,89.34
2017-02-04T02:59:02.577Z,89.24
2017-02-04T02:59:17.086Z,89.24
2017-02-04T02:59:31.660Z,89.15
2017-02-04T02:59:46.206Z,89.15
2017-02-04T03:00:00.737Z,89.24
2017-02-04T03:00:15.255Z,89.34
2017-02-04T03:00:29.698Z,89.24
2017-02-04T03:00:44.173Z,89.24
2017-02-04T03:00:58.726Z,89.05
2017-02-04T03:01:13.270Z,89.34
2017-02-04T03:01:27.763Z,89.15
2017-02-04T03:01:42.321Z,89.15
2017-02-04T03:01:56.926Z,89.24
2017-02-04T03:02:11.486Z,89.15
2017-02-04T03:02:26.377Z,89.24
2017-02-04T03:02:40.869Z,89.15
2017-02-04T03:02:55.373Z,89.34
2017-02-04T03:03:09.883Z,89.24
2017-02-04T03:03:24.364Z,89.34
2017-02-04T03:03:38.888Z,89.24
2017-02-04T03:03:53.365Z,89.24
2017-02-04T03:04:07.909Z,89.15
2017-02-04T03:04:22.422Z,89.24
2017-02-04T03:04:36.961Z,89.15
2017-02-04T03:04:51.480Z,89.43
2017-02-04T03:05:06.006Z,89.34
2017-02-04T03:05:20.580Z,89.24
2017-02-04T03:05:35.115Z,89.34
2017-02-04T03:05:49.652Z,89.15
2017-02-04T03:06:04.229Z,89.29
2017-02-04T03:06:18.826Z,89.29
2017-02-04T03:06:33.343Z,89.34
2017-02-04T03:06:47.875Z,89.34
2017-02-04T03:07:02.422Z,89.39
2017-02-04T03:07:16.981Z,89.24
2017-02-04T03:07:31.538Z,89.29